createdAt,value
2018-06-21T00:01:46.062Z,99.90
2018-06-21T00:04:14.731Z,99.90
2018-06-21T00:06:43.443Z,99.90
2018-06-21T00:09:12.131Z,99.90
2018-06-21T00:11:40.801Z,99.90
2018-06-21T00:14:09.805Z,99.90
2018-06-21T00:16:38.493Z,99.90
2018-06-21T00:19:07.184Z,99.90
2018-06-21T00:21:35.857Z,99.90
2018-06-21T00:24:18.614Z,99.90
2018-06-21T00:26:47.305Z,99.90
2018-06-21T00:29:16.104Z,99.90
2018-06-21T00:31:44.714Z,99.90
2018-06-21T00:34:13.387Z,99.90
2018-06-21T00:36:42.118Z,99.90
2018-06-21T00:39:10.804Z,99.90
2018-06-21T00:41:39.517Z,99.90
2018-06-21T00:44:08.232Z,99.90
2018-06-21T00:46:36.914Z,99.90
2018-06-21T00:49:05.610Z,99.90
2018-06-21T00:51:34.292Z,99.90
2018-06-21T00:54:03.010Z,99.90
2018-06-21T00:56:31.683Z,99.90
2018-06-21T00:59:00.476Z,99.90
2018-06-21T01:01:29.125Z,99.90
2018-06-21T01:03:57.856Z,99.90
2018-06-21T01:06:45.344Z,99.90
2018-06-21T01:09:14.058Z,99.90
2018-06-21T01:11:42.726Z,99.90
2018-06-21T01:14:11.398Z,99.90
2018-06-21T01:16:40.144Z,99.90
2018-06-21T01:19:08.845Z,99.90
2018-06-21T01:21:37.565Z,99.90
2018-06-21T01:24:06.225Z,99.90
2018-06-21T01:26:34.914Z,99.90
2018-06-21T01:29:03.579Z,99.90
2018-06-21T01:31:32.268Z,99.90
2018-06-21T01:34:00.965Z,99.90
2018-06-21T01:36:29.621Z,99.90
2018-06-21T01:39:14.152Z,99.90
2018-06-21T01:41:42.822Z,99.90
2018-06-21T01:44:11.851Z,99.90
2018-06-21T01:46:40.536Z,99.90
2018-06-21T01:49:09.218Z,99.90
2018-06-21T01:51:37.937Z,99.90
2018-06-21T01:54:06.605Z,99.90
2018-06-21T01:56:35.338Z,99.90
2018-06-21T01:59:04.079Z,99.90
2018-06-21T02:01:32.751Z,99.90
2018-06-21T02:04:01.473Z,99.90
2018-06-21T02:06:30.179Z,99.90
2018-06-21T02:08:58.899Z,99.90
2018-06-21T02:11:27.568Z,99.90
2018-06-21T02:16:24.683Z,99.90
2018-06-21T02:18:53.367Z,99.90
2018-06-21T02:21:22.069Z,99.90
2018-06-21T02:23:50.742Z,99.90
2018-06-21T02:26:19.442Z,99.90
2018-06-21T02:28:48.180Z,99.90
2018-06-21T02:31:16.865Z,99.90
2018-06-21T02:36:38.910Z,99.90
2018-06-21T02:39:08.651Z,99.90
2018-06-21T02:41:37.330Z,99.90
2018-06-21T02:44:06.103Z,99.90
2018-06-21T02:46:34.811Z,99.90
2018-06-21T02:49:03.506Z,99.90
2018-06-21T02:54:00.547Z,99.90
2018-06-21T02:56:29.253Z,99.90
2018-06-21T02:58:57.946Z,99.90
2018-06-21T03:01:26.607Z,99.90
2018-06-21T03:03:55.371Z,99.90
2018-06-21T03:06:24.103Z,99.90
2018-06-21T03:08:52.755Z,99.90
2018-06-21T03:11:21.823Z,99.90
2018-06-21T03:13:50.554Z,99.90
2018-06-21T03:16:19.258Z,99.90
2018-06-21T03:18:49.063Z,99.90
2018-06-21T03:21:17.777Z,99.90
2018-06-21T03:23:46.435Z,99.90
2018-06-21T03:26:15.125Z,99.90
2018-06-21T03:28:43.819Z,99.90
2018-06-21T03:31:12.503Z,99.90
2018-06-21T03:33:41.215Z,99.90
2018-06-21T03:36:09.954Z,99.90
2018-06-21T03:38:38.734Z,99.90
2018-06-21T03:41:07.459Z,99.90
2018-06-21T03:43:36.150Z,99.90
2018-06-21T03:46:05.016Z,99.90
2018-06-21T03:48:33.948Z,99.90
2018-06-21T03:51:02.622Z,99.90
2018-06-21T03:53:31.335Z,99.90
2018-06-21T03:56:00.024Z,99.90
2018-06-21T03:58:28.750Z,99.90
2018-06-21T04:00:57.432Z,99.90
2018-06-21T04:03:26.149Z,99.90
2018-06-21T04:05:54.857Z,99.90
2018-06-21T04:08:23.542Z,99.90
2018-06-21T04:10:52.280Z,99.90
2018-06-21T04:13:20.950Z,99.90
2018-06-21T04:15:49.656Z,99.90
2018-06-21T04:18:22.542Z,99.90
2018-06-21T04:20:51.242Z,99.90
2018-06-21T04:23:19.974Z,99.90
2018-06-21T04:25:48.663Z,99.90
2018-06-21T04:28:17.325Z,99.90
2018-06-21T04:30:46.035Z,99.90
2018-06-21T04:33:14.862Z,99.90
2018-06-21T04:35:43.575Z,99.90
2018-06-21T04:38:12.685Z,99.90
2018-06-21T04:40:41.366Z,99.90
2018-06-21T04:43:10.116Z,99.90
2018-06-21T04:45:38.834Z,99.90
2018-06-21T04:48:07.543Z,99.90
2018-06-21T04:50:52.139Z,99.90
2018-06-21T04:53:20.891Z,99.90
2018-06-21T04:55:49.623Z,99.90
2018-06-21T04:58:18.818Z,99.90
2018-06-21T05:00:47.518Z,99.90
2018-06-21T05:03:16.194Z,99.90
2018-06-21T05:05:44.963Z,99.90
2018-06-21T05:08:13.645Z,99.90
2018-06-21T05:10:42.330Z,99.90
2018-06-21T05:13:11.006Z,99.90
2018-06-21T05:15:39.677Z,99.90
2018-06-21T05:18:08.380Z,99.90
2018-06-21T05:20:37.073Z,99.90
2018-06-21T05:23:05.944Z,99.90
2018-06-21T05:28:04.048Z,99.90
2018-06-21T05:30:32.774Z,99.90
2018-06-21T05:33:01.436Z,99.90
2018-06-21T05:35:30.162Z,99.90
2018-06-21T05:37:58.923Z,99.90
2018-06-21T05:40:31.127Z,99.90
2018-06-21T05:43:01.299Z,99.90
2018-06-21T05:45:30.072Z,99.90
2018-06-21T05:48:00.391Z,99.90
2018-06-21T05:52:59.110Z,99.90
2018-06-21T05:55:28.591Z,99.90
2018-06-21T06:00:50.566Z,99.90
2018-06-21T06:03:19.299Z,99.90
2018-06-21T06:05:47.966Z,99.90
2018-06-21T06:08:16.629Z,99.90
2018-06-21T06:10:45.346Z,99.90
2018-06-21T06:13:14.010Z,99.90
2018-06-21T06:15:42.740Z,99.90
2018-06-21T06:18:11.434Z,99.90
2018-06-21T06:20:40.164Z,99.90
2018-06-21T06:23:08.896Z,99.90
2018-06-21T06:25:37.600Z,99.90
2018-06-21T06:30:34.654Z,99.90
2018-06-21T06:33:03.310Z,99.90
2018-06-21T06:35:32.086Z,99.90
2018-06-21T06:38:01.564Z,99.90
2018-06-21T06:40:30.460Z,99.90
2018-06-21T06:45:27.427Z,99.90
2018-06-21T06:47:56.168Z,99.90
2018-06-21T06:52:53.299Z,99.90
2018-06-21T06:55:21.989Z,99.90
2018-06-21T06:57:50.651Z,99.90
2018-06-21T07:00:19.394Z,99.90
2018-06-21T07:02:48.101Z,99.90
2018-06-21T07:05:16.858Z,99.90
2018-06-21T07:07:45.527Z,99.90
2018-06-21T07:10:14.200Z,99.90
2018-06-21T07:12:42.926Z,99.90
2018-06-21T07:15:11.600Z,99.90
2018-06-21T07:17:40.411Z,99.90
2018-06-21T07:20:09.190Z,99.90
2018-06-21T07:22:37.882Z,99.90
2018-06-21T07:27:34.959Z,99.90
2018-06-21T07:30:03.773Z,99.90
2018-06-21T07:32:32.456Z,99.90
2018-06-21T07:35:01.160Z,99.90
2018-06-21T07:37:30.102Z,99.90
2018-06-21T07:39:58.793Z,99.90
2018-06-21T07:42:27.511Z,99.60
2018-06-21T07:44:56.227Z,99.70
2018-06-21T07:47:24.966Z,99.50
2018-06-21T07:49:53.683Z,99.50
2018-06-21T07:52:22.372Z,98.80
2018-06-21T07:54:51.123Z,99.50
2018-06-21T07:57:19.794Z,98.20
2018-06-21T08:02:16.835Z,99.90
2018-06-21T08:04:45.590Z,99.90
2018-06-21T08:07:14.309Z,99.90
2018-06-21T08:09:43.005Z,99.90
2018-06-21T08:14:40.027Z,99.90
2018-06-21T08:17:08.721Z,99.70
2018-06-21T08:19:37.458Z,99.90
2018-06-21T08:22:06.169Z,99.90
2018-06-21T08:27:28.238Z,99.90
2018-06-21T08:29:57.032Z,99.90
2018-06-21T08:32:25.701Z,99.90
2018-06-21T08:34:54.383Z,99.90
2018-06-21T08:37:23.111Z,99.90
2018-06-21T08:42:44.263Z,99.50
2018-06-21T08:45:12.957Z,99.50
2018-06-21T08:47:41.625Z,96.60
2018-06-21T08:50:10.309Z,95.50
2018-06-21T08:52:39.063Z,97.70
2018-06-21T08:55:07.786Z,96.00
2018-06-21T08:57:36.458Z,95.40
2018-06-21T09:00:05.175Z,96.30
2018-06-21T09:02:34.152Z,95.60
2018-06-21T09:05:03.248Z,95.30
2018-06-21T09:07:31.951Z,95.90
2018-06-21T09:10:00.691Z,95.80
2018-06-21T09:12:34.864Z,95.60
2018-06-21T09:15:03.951Z,95.60
2018-06-21T09:17:32.636Z,96.90
2018-06-21T09:20:01.563Z,96.50
2018-06-21T09:22:31.006Z,96.60
2018-06-21T09:25:00.224Z,96.20
2018-06-21T09:27:28.993Z,96.00
2018-06-21T09:29:58.169Z,96.30
2018-06-21T09:32:28.014Z,94.90
2018-06-21T09:34:56.824Z,95.60
2018-06-21T09:37:37.568Z,95.70
2018-06-21T09:46:14.875Z,96.70
2018-06-21T09:48:48.904Z,96.80
2018-06-21T09:51:17.590Z,96.70
2018-06-21T09:53:46.334Z,95.70
2018-06-21T09:56:15.042Z,97.10
2018-06-21T09:58:43.760Z,96.00
2018-06-21T10:01:12.447Z,95.20
2018-06-21T10:06:09.468Z,95.10
2018-06-21T10:08:38.136Z,95.20
2018-06-21T10:11:06.866Z,95.80
2018-06-21T10:16:03.862Z,94.00
2018-06-21T10:18:36.282Z,95.00
2018-06-21T10:21:05.851Z,93.70
2018-06-21T10:23:34.509Z,94.60
2018-06-21T10:26:03.231Z,94.40
2018-06-21T10:28:31.900Z,94.60
2018-06-21T10:31:00.631Z,92.70
2018-06-21T10:33:29.296Z,93.00
2018-06-21T10:35:57.968Z,93.60
2018-06-21T10:38:26.665Z,92.40
2018-06-21T10:40:55.325Z,93.10
2018-06-21T10:43:24.010Z,93.10
2018-06-21T10:45:52.718Z,92.90
2018-06-21T10:48:21.418Z,94.20
2018-06-21T10:50:50.101Z,93.40
2018-06-21T10:53:18.774Z,93.00
2018-06-21T10:55:47.464Z,92.90
2018-06-21T10:58:16.224Z,93.80
2018-06-21T11:00:44.897Z,94.50
2018-06-21T11:05:41.906Z,94.20
2018-06-21T11:08:10.638Z,95.30
2018-06-21T11:10:39.354Z,96.00
2018-06-21T11:13:08.026Z,94.20
2018-06-21T11:15:38.815Z,94.40
2018-06-21T11:18:14.210Z,94.70
2018-06-21T11:20:43.496Z,95.30
2018-06-21T11:23:12.133Z,95.20
2018-06-21T11:25:40.789Z,95.70
2018-06-21T11:28:09.595Z,97.10
2018-06-21T11:30:38.289Z,95.30
2018-06-21T11:33:06.995Z,93.70
2018-06-21T11:35:35.911Z,93.90
2018-06-21T11:38:04.704Z,92.60
2018-06-21T11:40:33.369Z,93.40
2018-06-21T11:45:30.383Z,92.00
2018-06-21T11:47:59.050Z,93.30
2018-06-21T11:50:27.972Z,93.20
2018-06-21T11:52:56.653Z,94.10
2018-06-21T11:55:25.346Z,92.40
2018-06-21T11:57:54.086Z,88.40
2018-06-21T12:02:51.322Z,88.30
2018-06-21T12:05:20.039Z,87.80
2018-06-21T12:10:17.030Z,88.70
2018-06-21T12:12:45.710Z,86.70
2018-06-21T12:15:14.417Z,85.90
2018-06-21T12:17:43.158Z,88.20
2018-06-21T12:20:11.827Z,87.90
2018-06-21T12:22:40.523Z,88.80
2018-06-21T12:25:09.195Z,88.20
2018-06-21T12:27:37.894Z,89.80
2018-06-21T12:30:06.611Z,90.70
2018-06-21T12:32:35.295Z,91.20
2018-06-21T12:35:04.017Z,91.00
2018-06-21T12:37:33.054Z,91.20
2018-06-21T12:42:30.050Z,90.10
2018-06-21T12:44:58.742Z,91.50
2018-06-21T12:47:27.453Z,91.10
2018-06-21T12:49:56.131Z,91.30
2018-06-21T12:52:24.879Z,90.90
2018-06-21T12:54:53.580Z,91.10
2018-06-21T12:57:22.244Z,90.80
2018-06-21T12:59:50.947Z,91.50
2018-06-21T13:02:19.650Z,90.30
2018-06-21T13:04:48.324Z,91.00
2018-06-21T13:07:17.047Z,91.20
2018-06-21T13:09:56.795Z,89.90
2018-06-21T13:12:37.904Z,89.60
2018-06-21T13:17:35.006Z,89.50
2018-06-21T13:20:04.848Z,89.50
2018-06-21T13:22:33.522Z,89.70
2018-06-21T13:25:02.251Z,90.30
2018-06-21T13:29:59.253Z,89.40
2018-06-21T13:32:28.062Z,90.00
2018-06-21T13:34:56.751Z,89.90
2018-06-21T13:37:25.445Z,86.10
2018-06-21T13:39:54.128Z,80.80
2018-06-21T13:42:22.851Z,84.00
2018-06-21T13:44:51.597Z,86.10
2018-06-21T13:47:20.270Z,88.00
2018-06-21T13:49:49.026Z,88.50
2018-06-21T13:52:17.747Z,90.00
2018-06-21T13:54:46.494Z,90.40
2018-06-21T13:57:15.236Z,91.00
2018-06-21T13:59:43.995Z,91.50
2018-06-21T14:02:12.674Z,91.60
2018-06-21T14:04:41.389Z,90.90
2018-06-21T14:07:10.082Z,91.40
2018-06-21T14:09:41.133Z,95.20
2018-06-21T14:12:09.950Z,95.30
2018-06-21T14:14:38.631Z,96.20
2018-06-21T14:17:07.290Z,97.10
2018-06-21T14:19:36.003Z,97.70
2018-06-21T14:22:04.746Z,97.10
2018-06-21T14:24:33.517Z,97.00
2018-06-21T14:27:02.195Z,96.40
2018-06-21T14:29:30.909Z,97.00
2018-06-21T14:31:59.581Z,95.80
2018-06-21T14:34:28.274Z,96.50
2018-06-21T14:36:57.040Z,96.90
2018-06-21T14:39:25.709Z,96.30
2018-06-21T14:41:54.440Z,96.10
2018-06-21T14:44:23.194Z,97.30
2018-06-21T14:46:51.885Z,96.50
2018-06-21T14:49:20.592Z,97.60
2018-06-21T14:51:49.367Z,97.40
2018-06-21T14:54:18.111Z,97.20
2018-06-21T14:56:46.770Z,98.00
2018-06-21T14:59:15.480Z,98.30
2018-06-21T15:01:44.192Z,98.30
2018-06-21T15:04:12.903Z,98.30
2018-06-21T15:06:41.605Z,98.50
2018-06-21T15:09:12.250Z,98.70
2018-06-21T15:11:40.929Z,99.90
2018-06-21T15:14:09.580Z,99.90
2018-06-21T15:16:38.309Z,99.90
2018-06-21T15:19:06.983Z,99.90
2018-06-21T15:21:35.710Z,99.90
2018-06-21T15:24:04.442Z,99.50
2018-06-21T15:26:33.201Z,99.90
2018-06-21T15:29:01.946Z,99.90
2018-06-21T15:31:30.667Z,99.90
2018-06-21T15:33:59.332Z,99.90
2018-06-21T15:36:28.063Z,99.90
2018-06-21T15:38:58.538Z,99.90
2018-06-21T15:41:28.984Z,99.90
2018-06-21T15:43:57.646Z,99.90
2018-06-21T15:46:28.397Z,99.90
2018-06-21T15:48:57.102Z,99.90
2018-06-21T15:51:25.801Z,99.90
2018-06-21T15:53:54.534Z,99.90
2018-06-21T15:56:23.213Z,99.90
2018-06-21T15:58:51.931Z,99.90
2018-06-21T16:01:20.655Z,99.90
2018-06-21T16:03:56.038Z,99.90
2018-06-21T16:06:25.796Z,99.90
2018-06-21T16:08:57.726Z,99.90
2018-06-21T16:11:26.395Z,99.90
2018-06-21T16:13:55.122Z,99.90
2018-06-21T16:16:23.842Z,99.90
2018-06-21T16:18:52.557Z,99.90
2018-06-21T16:21:21.253Z,99.90
2018-06-21T16:23:49.900Z,99.90
2018-06-21T16:26:18.566Z,99.90
2018-06-21T16:28:50.651Z,99.90
2018-06-21T16:31:19.327Z,99.90
2018-06-21T16:33:48.050Z,99.90
2018-06-21T16:36:16.747Z,99.90
2018-06-21T16:38:45.519Z,99.90
2018-06-21T16:41:14.234Z,99.90
2018-06-21T16:46:11.591Z,99.90
2018-06-21T16:51:08.762Z,99.90
2018-06-21T16:53:37.521Z,99.90
2018-06-21T16:56:06.321Z,99.90
2018-06-21T16:58:35.048Z,99.90
2018-06-21T17:01:03.865Z,99.90
2018-06-21T17:03:32.566Z,99.90
2018-06-21T17:06:01.374Z,99.90
2018-06-21T17:08:30.057Z,99.90
2018-06-21T17:10:58.801Z,99.90
2018-06-21T17:13:27.586Z,99.90
2018-06-21T17:15:56.374Z,99.90
2018-06-21T17:18:25.165Z,99.90
2018-06-21T17:20:53.994Z,99.90
2018-06-21T17:23:22.709Z,99.90
2018-06-21T17:25:51.440Z,99.90
2018-06-21T17:28:20.210Z,99.90
2018-06-21T17:30:48.938Z,99.90
2018-06-21T17:33:17.652Z,98.00
2018-06-21T17:35:46.365Z,96.50
2018-06-21T17:38:15.265Z,95.20
2018-06-21T17:40:44.178Z,93.70
2018-06-21T17:43:12.940Z,93.70
2018-06-21T17:45:44.664Z,92.00
2018-06-21T17:48:13.522Z,91.10
2018-06-21T17:50:42.418Z,90.50
2018-06-21T17:53:11.170Z,91.30
2018-06-21T17:55:39.875Z,90.20
2018-06-21T17:58:08.725Z,90.30
2018-06-21T18:00:37.409Z,90.60
2018-06-21T18:03:06.093Z,90.80
2018-06-21T18:05:34.763Z,90.30
2018-06-21T18:08:03.634Z,88.10
2018-06-21T18:10:32.307Z,87.90
2018-06-21T18:13:01.035Z,87.60
2018-06-21T18:15:29.934Z,86.30
2018-06-21T18:18:00.779Z,82.80
2018-06-21T18:20:29.557Z,83.20
2018-06-21T18:22:58.332Z,82.00
2018-06-21T18:25:27.130Z,82.70
2018-06-21T18:27:56.711Z,80.00
2018-06-21T18:30:25.467Z,80.80
2018-06-21T18:35:47.380Z,80.60
2018-06-21T18:38:16.098Z,79.60
2018-06-21T18:40:44.829Z,76.90
2018-06-21T18:43:13.735Z,77.90
2018-06-21T18:45:42.641Z,76.60
2018-06-21T18:48:11.393Z,77.70
2018-06-21T18:50:40.126Z,77.80
2018-06-21T18:53:08.806Z,78.00
2018-06-21T18:55:37.539Z,76.60
2018-06-21T18:58:06.228Z,76.20
2018-06-21T19:00:34.946Z,76.10
2018-06-21T19:03:26.153Z,76.20
2018-06-21T19:05:54.903Z,76.80
2018-06-21T19:08:28.951Z,76.60
2018-06-21T19:11:03.212Z,76.60
2018-06-21T19:13:52.296Z,76.80
2018-06-21T19:16:21.079Z,78.10
2018-06-21T19:18:55.087Z,76.80
2018-06-21T19:21:23.893Z,76.70
2018-06-21T19:23:52.891Z,77.20
2018-06-21T19:26:25.040Z,75.10
2018-06-21T19:28:53.697Z,75.00
2018-06-21T19:31:22.412Z,75.30
2018-06-21T19:33:57.860Z,74.60
2018-06-21T19:36:26.581Z,76.00
2018-06-21T19:38:55.271Z,75.70
2018-06-21T19:41:31.022Z,75.50
2018-06-21T19:44:08.547Z,76.40
2018-06-21T19:46:38.000Z,77.70
2018-06-21T19:49:19.537Z,78.00
2018-06-21T19:51:48.198Z,77.20
2018-06-21T19:54:16.926Z,77.30
2018-06-21T19:56:45.726Z,77.10
2018-06-21T19:59:14.436Z,77.50
2018-06-21T20:01:43.174Z,77.40
2018-06-21T20:04:11.857Z,78.60
2018-06-21T20:06:40.565Z,77.50
2018-06-21T20:09:14.866Z,77.80
2018-06-21T20:11:43.570Z,77.20
2018-06-21T20:14:12.305Z,78.80
2018-06-21T20:16:41.040Z,79.20
2018-06-21T20:19:12.838Z,78.00
2018-06-21T20:21:41.602Z,77.70
2018-06-21T20:24:10.444Z,79.70
2018-06-21T20:26:39.169Z,78.90
2018-06-21T20:29:13.066Z,79.40
2018-06-21T20:31:41.983Z,79.30
2018-06-21T20:34:10.718Z,78.90
2018-06-21T20:36:39.423Z,79.10
2018-06-21T20:39:09.507Z,80.00
2018-06-21T20:41:38.192Z,80.60
2018-06-21T20:44:06.982Z,81.40
2018-06-21T20:46:35.770Z,83.60
2018-06-21T20:49:04.459Z,83.60
2018-06-21T20:51:33.176Z,83.00
2018-06-21T20:54:01.887Z,83.50
2018-06-21T20:56:32.699Z,83.00
2018-06-21T20:59:01.394Z,83.50
2018-06-21T21:01:30.131Z,84.10
2018-06-21T21:03:59.112Z,84.40
2018-06-21T21:06:27.790Z,85.10
2018-06-21T21:11:24.786Z,84.70
2018-06-21T21:13:53.519Z,85.00
2018-06-21T21:16:22.378Z,84.60
2018-06-21T21:18:51.161Z,84.00
2018-06-21T21:21:38.464Z,84.40
2018-06-21T21:27:00.134Z,85.60
2018-06-21T21:29:29.020Z,86.10
2018-06-21T21:32:17.752Z,87.00
2018-06-21T21:34:49.703Z,86.20
2018-06-21T21:37:18.395Z,85.60
2018-06-21T21:39:47.106Z,85.30
2018-06-21T21:42:15.794Z,86.40
2018-06-21T21:44:44.507Z,86.00
2018-06-21T21:47:13.270Z,87.40
2018-06-21T21:49:41.963Z,88.20
2018-06-21T21:52:10.643Z,88.30
2018-06-21T21:54:39.353Z,89.20
2018-06-21T21:57:08.064Z,88.70
2018-06-21T21:59:36.744Z,88.20
2018-06-21T22:02:05.487Z,88.50
2018-06-21T22:04:34.178Z,89.40
2018-06-21T22:07:02.901Z,89.70
2018-06-21T22:09:31.606Z,89.80
2018-06-21T22:12:00.351Z,90.30
2018-06-21T22:14:29.081Z,90.00
2018-06-21T22:16:57.801Z,90.30
2018-06-21T22:19:26.495Z,89.70
2018-06-21T22:21:55.186Z,90.00
2018-06-21T22:24:24.210Z,90.30
2018-06-21T22:26:53.045Z,90.20
2018-06-21T22:29:21.795Z,89.80
2018-06-21T22:31:50.693Z,90.30
2018-06-21T22:34:19.603Z,89.30
2018-06-21T22:36:48.566Z,90.10
2018-06-21T22:39:17.310Z,90.50
2018-06-21T22:41:46.010Z,90.50
2018-06-21T22:44:14.704Z,90.80
2018-06-21T22:46:43.422Z,91.70
2018-06-21T22:49:12.161Z,91.30
2018-06-21T22:51:40.861Z,91.50
2018-06-21T22:54:09.590Z,92.00
2018-06-21T22:59:06.610Z,92.80
2018-06-21T23:01:35.318Z,93.10
2018-06-21T23:04:04.026Z,93.70
2018-06-21T23:06:32.779Z,94.10
2018-06-21T23:09:01.460Z,94.20
2018-06-21T23:11:30.133Z,94.00
2018-06-21T23:13:58.843Z,94.10
2018-06-21T23:16:27.538Z,94.60
2018-06-21T23:19:07.273Z,94.40
2018-06-21T23:21:35.962Z,94.90
2018-06-21T23:24:04.727Z,95.20
2018-06-21T23:26:33.485Z,95.20
2018-06-21T23:29:02.159Z,95.50
2018-06-21T23:33:59.184Z,95.80
2018-06-21T23:36:27.885Z,96.10
2018-06-21T23:38:56.578Z,96.10
2018-06-21T23:41:25.279Z,95.90
2018-06-21T23:49:39.467Z,96.50
2018-06-21T23:54:36.464Z,96.70
2018-06-21T23:57:05.239Z,97.30
2018-06-21T23:59:33.935Z,97.90
